sensor_id;sensor_type;location;lat;lon;timestamp;temperature;humidity
24836;DHT22;12915;57.650;12.044;2023-06-22T00:02:16;19.70;99.90
24836;DHT22;12915;57.650;12.044;2023-06-22T00:04:43;19.70;99.90
24836;DHT22;12915;57.650;12.044;2023-06-22T00:07:09;19.60;99.90
24836;DHT22;12915;57.650;12.044;2023-06-22T00:09:35;19.70;99.90
24836;DHT22;12915;57.650;12.044;2023-06-22T00:12:01;19.90;99.90
24836;DHT22;12915;57.650;12.044;2023-06-22T00:14:27;20.10;99.90
24836;DHT22;12915;57.650;12.044;2023-06-22T00:16:52;20.10;99.90
24836;DHT22;12915;57.650;12.044;2023-06-22T00:19:20;20.00;99.90
24836;DHT22;12915;57.650;12.044;2023-06-22T00:21:47;20.00;99.90
24836;DHT22;12915;57.650;12.044;2023-06-22T00:24:13;19.90;99.90
24836;DHT22;12915;57.650;12.044;2023-06-22T00:26:39;19.60;99.90
24836;DHT22;12915;57.650;12.044;2023-06-22T00:29:05;19.50;99.90
24836;DHT22;12915;57.650;12.044;2023-06-22T00:31:31;19.40;99.90
24836;DHT22;12915;57.650;12.044;2023-06-22T00:33:56;19.40;99.90
24836;DHT22;12915;57.650;12.044;2023-06-22T00:36:22;19.60;99.90
24836;DHT22;12915;57.650;12.044;2023-06-22T00:38:50;19.80;99.90
24836;DHT22;12915;57.650;12.044;2023-06-22T00:41:17;20.10;99.90
24836;DHT22;12915;57.650;12.044;2023-06-22T00:43:42;20.20;99.90
24836;DHT22;12915;57.650;12.044;2023-06-22T00:46:08;20.20;99.90
24836;DHT22;12915;57.650;12.044;2023-06-22T00:48:34;20.30;99.90
24836;DHT22;12915;57.650;12.044;2023-06-22T00:51:02;20.10;99.90
24836;DHT22;12915;57.650;12.044;2023-06-22T00:53:28;19.80;99.90
24836;DHT22;12915;57.650;12.044;2023-06-22T00:55:54;19.70;99.90
24836;DHT22;12915;57.650;12.044;2023-06-22T00:58:21;19.50;99.90
24836;DHT22;12915;57.650;12.044;2023-06-22T01:00:51;19.30;99.90
24836;DHT22;12915;57.650;12.044;2023-06-22T01:03:17;19.30;99.90
24836;DHT22;12915;57.650;12.044;2023-06-22T01:05:44;19.50;99.90
24836;DHT22;12915;57.650;12.044;2023-06-22T01:08:37;19.50;99.90
24836;DHT22;12915;57.650;12.044;2023-06-22T01:11:21;19.30;99.90
24836;DHT22;12915;57.650;12.044;2023-06-22T01:14:06;19.40;99.90
24836;DHT22;12915;57.650;12.044;2023-06-22T01:16:37;19.50;99.90
24836;DHT22;12915;57.650;12.044;2023-06-22T01:21:44;19.40;99.90
24836;DHT22;12915;57.650;12.044;2023-06-22T01:24:15;19.40;99.90
24836;DHT22;12915;57.650;12.044;2023-06-22T01:26:57;19.50;99.90
24836;DHT22;12915;57.650;12.044;2023-06-22T01:29:27;19.40;99.90
24836;DHT22;12915;57.650;12.044;2023-06-22T01:31:54;19.30;99.90
24836;DHT22;12915;57.650;12.044;2023-06-22T01:34:21;19.50;99.90
24836;DHT22;12915;57.650;12.044;2023-06-22T01:36:49;19.70;99.90
24836;DHT22;12915;57.650;12.044;2023-06-22T01:39:16;19.80;99.90
24836;DHT22;12915;57.650;12.044;2023-06-22T01:41:42;19.70;99.90
24836;DHT22;12915;57.650;12.044;2023-06-22T01:44:09;19.80;99.90
24836;DHT22;12915;57.650;12.044;2023-06-22T01:46:37;19.70;99.90
24836;DHT22;12915;57.650;12.044;2023-06-22T01:49:04;19.60;99.90
24836;DHT22;12915;57.650;12.044;2023-06-22T01:51:30;19.60;99.90
24836;DHT22;12915;57.650;12.044;2023-06-22T01:53:56;19.50;99.90
24836;DHT22;12915;57.650;12.044;2023-06-22T01:56:22;19.40;99.90
24836;DHT22;12915;57.650;12.044;2023-06-22T01:59:00;19.40;99.90
24836;DHT22;12915;57.650;12.044;2023-06-22T02:01:35;19.50;99.90
24836;DHT22;12915;57.650;12.044;2023-06-22T02:04:09;19.80;99.90
24836;DHT22;12915;57.650;12.044;2023-06-22T02:06:39;19.70;99.90
24836;DHT22;12915;57.650;12.044;2023-06-22T02:09:14;19.60;99.90
24836;DHT22;12915;57.650;12.044;2023-06-22T02:11:43;19.50;99.90
24836;DHT22;12915;57.650;12.044;2023-06-22T02:14:11;19.50;99.90
24836;DHT22;12915;57.650;12.044;2023-06-22T02:16:40;19.60;99.90
24836;DHT22;12915;57.650;12.044;2023-06-22T02:19:07;19.60;99.90
24836;DHT22;12915;57.650;12.044;2023-06-22T02:21:34;19.40;99.90
24836;DHT22;12915;57.650;12.044;2023-06-22T02:23:59;19.40;99.90
24836;DHT22;12915;57.650;12.044;2023-06-22T02:26:26;19.40;99.90
24836;DHT22;12915;57.650;12.044;2023-06-22T02:28:52;19.40;99.90
24836;DHT22;12915;57.650;12.044;2023-06-22T02:31:18;19.50;99.90
24836;DHT22;12915;57.650;12.044;2023-06-22T02:33:45;19.60;99.90
24836;DHT22;12915;57.650;12.044;2023-06-22T02:36:11;19.70;99.90
24836;DHT22;12915;57.650;12.044;2023-06-22T02:38:40;19.80;99.90
24836;DHT22;12915;57.650;12.044;2023-06-22T02:41:06;19.70;99.90
24836;DHT22;12915;57.650;12.044;2023-06-22T02:43:32;19.60;99.90
24836;DHT22;12915;57.650;12.044;2023-06-22T02:45:57;19.50;99.90
24836;DHT22;12915;57.650;12.044;2023-06-22T02:48:23;19.40;99.90
24836;DHT22;12915;57.650;12.044;2023-06-22T02:50:49;19.50;99.90
24836;DHT22;12915;57.650;12.044;2023-06-22T02:53:15;19.50;99.90
24836;DHT22;12915;57.650;12.044;2023-06-22T02:55:40;19.70;99.90
24836;DHT22;12915;57.650;12.044;2023-06-22T02:58:06;19.90;99.90
24836;DHT22;12915;57.650;12.044;2023-06-22T03:00:32;19.90;99.90
24836;DHT22;12915;57.650;12.044;2023-06-22T03:02:58;19.60;99.90
24836;DHT22;12915;57.650;12.044;2023-06-22T03:05:24;19.50;99.90
24836;DHT22;12915;57.650;12.044;2023-06-22T03:07:49;19.40;99.90
24836;DHT22;12915;57.650;12.044;2023-06-22T03:10:16;19.30;99.90
24836;DHT22;12915;57.650;12.044;2023-06-22T03:12:42;19.50;99.90
24836;DHT22;12915;57.650;12.044;2023-06-22T03:15:11;19.70;99.90
24836;DHT22;12915;57.650;12.044;2023-06-22T03:17:38;19.90;99.90
24836;DHT22;12915;57.650;12.044;2023-06-22T03:20:06;19.80;99.90
24836;DHT22;12915;57.650;12.044;2023-06-22T03:22:36;19.80;99.90
24836;DHT22;12915;57.650;12.044;2023-06-22T03:25:02;19.80;99.90
24836;DHT22;12915;57.650;12.044;2023-06-22T03:27:28;20.00;99.90
24836;DHT22;12915;57.650;12.044;2023-06-22T03:29:54;20.10;99.90
24836;DHT22;12915;57.650;12.044;2023-06-22T03:32:19;20.10;99.90
24836;DHT22;12915;57.650;12.044;2023-06-22T03:34:46;20.20;99.90
24836;DHT22;12915;57.650;12.044;2023-06-22T03:37:13;20.00;99.90
24836;DHT22;12915;57.650;12.044;2023-06-22T03:39:41;19.80;99.90
24836;DHT22;12915;57.650;12.044;2023-06-22T03:42:07;19.70;99.90
24836;DHT22;12915;57.650;12.044;2023-06-22T03:44:34;19.90;99.90
24836;DHT22;12915;57.650;12.044;2023-06-22T03:47:04;19.80;99.90
24836;DHT22;12915;57.650;12.044;2023-06-22T03:49:30;19.80;99.90
24836;DHT22;12915;57.650;12.044;2023-06-22T03:51:56;19.70;99.90
24836;DHT22;12915;57.650;12.044;2023-06-22T03:54:21;19.60;99.90
24836;DHT22;12915;57.650;12.044;2023-06-22T03:56:47;19.60;99.90
24836;DHT22;12915;57.650;12.044;2023-06-22T03:59:13;19.30;99.90
24836;DHT22;12915;57.650;12.044;2023-06-22T04:01:38;19.30;99.90
24836;DHT22;12915;57.650;12.044;2023-06-22T04:04:05;19.30;99.90
24836;DHT22;12915;57.650;12.044;2023-06-22T04:06:31;19.20;99.90
24836;DHT22;12915;57.650;12.044;2023-06-22T04:08:56;19.30;99.90
24836;DHT22;12915;57.650;12.044;2023-06-22T04:11:22;19.50;99.90
24836;DHT22;12915;57.650;12.044;2023-06-22T04:13:48;19.50;99.90
24836;DHT22;12915;57.650;12.044;2023-06-22T04:16:14;19.50;99.90
24836;DHT22;12915;57.650;12.044;2023-06-22T04:18:40;19.60;99.90
24836;DHT22;12915;57.650;12.044;2023-06-22T04:21:07;19.60;99.90
24836;DHT22;12915;57.650;12.044;2023-06-22T04:23:33;19.60;99.90
24836;DHT22;12915;57.650;12.044;2023-06-22T04:25:58;19.60;99.90
24836;DHT22;12915;57.650;12.044;2023-06-22T04:28:24;19.50;99.90
24836;DHT22;12915;57.650;12.044;2023-06-22T04:30:50;19.60;99.90
24836;DHT22;12915;57.650;12.044;2023-06-22T04:33:18;19.90;99.90
24836;DHT22;12915;57.650;12.044;2023-06-22T04:35:47;19.90;99.90
24836;DHT22;12915;57.650;12.044;2023-06-22T04:38:13;19.90;99.90
24836;DHT22;12915;57.650;12.044;2023-06-22T04:40:39;19.60;99.90
24836;DHT22;12915;57.650;12.044;2023-06-22T04:43:05;19.70;99.90
24836;DHT22;12915;57.650;12.044;2023-06-22T04:45:33;19.70;99.90
24836;DHT22;12915;57.650;12.044;2023-06-22T04:47:59;19.80;99.90
24836;DHT22;12915;57.650;12.044;2023-06-22T04:50:24;20.00;99.90
24836;DHT22;12915;57.650;12.044;2023-06-22T04:52:51;20.10;99.90
24836;DHT22;12915;57.650;12.044;2023-06-22T04:55:17;20.30;99.90
24836;DHT22;12915;57.650;12.044;2023-06-22T04:57:46;20.50;99.90
24836;DHT22;12915;57.650;12.044;2023-06-22T05:00:18;20.40;99.90
24836;DHT22;12915;57.650;12.044;2023-06-22T05:02:45;20.50;99.90
24836;DHT22;12915;57.650;12.044;2023-06-22T05:05:12;20.50;99.90
24836;DHT22;12915;57.650;12.044;2023-06-22T05:07:49;20.60;99.90
24836;DHT22;12915;57.650;12.044;2023-06-22T05:10:19;20.70;99.90
24836;DHT22;12915;57.650;12.044;2023-06-22T05:12:45;20.30;99.90
24836;DHT22;12915;57.650;12.044;2023-06-22T05:15:11;20.30;99.90
24836;DHT22;12915;57.650;12.044;2023-06-22T05:17:37;20.40;99.90
24836;DHT22;12915;57.650;12.044;2023-06-22T05:20:09;20.30;99.90
24836;DHT22;12915;57.650;12.044;2023-06-22T05:22:35;20.50;99.90
24836;DHT22;12915;57.650;12.044;2023-06-22T05:25:01;20.30;99.90
24836;DHT22;12915;57.650;12.044;2023-06-22T05:27:27;20.10;99.90
24836;DHT22;12915;57.650;12.044;2023-06-22T05:29:53;20.10;99.90
24836;DHT22;12915;57.650;12.044;2023-06-22T05:32:18;20.30;99.90
24836;DHT22;12915;57.650;12.044;2023-06-22T05:34:44;20.60;99.90
24836;DHT22;12915;57.650;12.044;2023-06-22T05:37:10;21.10;99.90
24836;DHT22;12915;57.650;12.044;2023-06-22T05:39:36;21.20;99.90
24836;DHT22;12915;57.650;12.044;2023-06-22T05:42:07;21.10;99.90
24836;DHT22;12915;57.650;12.044;2023-06-22T05:44:33;20.80;99.90
24836;DHT22;12915;57.650;12.044;2023-06-22T05:46:59;20.80;99.90
24836;DHT22;12915;57.650;12.044;2023-06-22T05:49:25;21.10;99.90
24836;DHT22;12915;57.650;12.044;2023-06-22T05:51:55;21.40;99.90
24836;DHT22;12915;57.650;12.044;2023-06-22T05:54:22;21.60;99.90
24836;DHT22;12915;57.650;12.044;2023-06-22T05:56:48;21.50;99.90
24836;DHT22;12915;57.650;12.044;2023-06-22T05:59:13;21.40;99.90
24836;DHT22;12915;57.650;12.044;2023-06-22T06:01:39;21.20;99.90
24836;DHT22;12915;57.650;12.044;2023-06-22T06:04:06;21.10;99.90
24836;DHT22;12915;57.650;12.044;2023-06-22T06:06:33;21.30;99.90
24836;DHT22;12915;57.650;12.044;2023-06-22T06:09:05;21.30;99.90
24836;DHT22;12915;57.650;12.044;2023-06-22T06:11:30;21.30;99.90
24836;DHT22;12915;57.650;12.044;2023-06-22T06:13:56;21.20;99.90
24836;DHT22;12915;57.650;12.044;2023-06-22T06:16:22;20.90;99.90
24836;DHT22;12915;57.650;12.044;2023-06-22T06:18:48;20.90;99.90
24836;DHT22;12915;57.650;12.044;2023-06-22T06:21:18;21.00;99.90
24836;DHT22;12915;57.650;12.044;2023-06-22T06:23:44;20.80;99.90
24836;DHT22;12915;57.650;12.044;2023-06-22T06:26:10;21.00;99.90
24836;DHT22;12915;57.650;12.044;2023-06-22T06:28:36;21.20;99.90
24836;DHT22;12915;57.650;12.044;2023-06-22T06:31:02;21.50;99.90
24836;DHT22;12915;57.650;12.044;2023-06-22T06:33:28;21.40;99.90
24836;DHT22;12915;57.650;12.044;2023-06-22T06:35:53;21.50;99.90
24836;DHT22;12915;57.650;12.044;2023-06-22T06:38:21;21.40;99.90
24836;DHT22;12915;57.650;12.044;2023-06-22T06:40:47;21.50;99.90
24836;DHT22;12915;57.650;12.044;2023-06-22T06:43:14;21.80;99.90
24836;DHT22;12915;57.650;12.044;2023-06-22T06:45:40;21.80;99.90
24836;DHT22;12915;57.650;12.044;2023-06-22T06:48:05;21.70;99.90
24836;DHT22;12915;57.650;12.044;2023-06-22T06:50:31;21.60;99.90
24836;DHT22;12915;57.650;12.044;2023-06-22T06:52:57;21.60;99.90
24836;DHT22;12915;57.650;12.044;2023-06-22T06:55:24;21.90;99.90
24836;DHT22;12915;57.650;12.044;2023-06-22T06:57:51;21.60;99.90
24836;DHT22;12915;57.650;12.044;2023-06-22T07:00:18;21.50;99.90
24836;DHT22;12915;57.650;12.044;2023-06-22T07:02:44;21.50;99.90
24836;DHT22;12915;57.650;12.044;2023-06-22T07:05:11;21.80;99.90
24836;DHT22;12915;57.650;12.044;2023-06-22T07:07:38;22.00;99.90
24836;DHT22;12915;57.650;12.044;2023-06-22T07:10:05;21.80;99.90
24836;DHT22;12915;57.650;12.044;2023-06-22T07:12:30;21.90;99.90
24836;DHT22;12915;57.650;12.044;2023-06-22T07:15:04;22.40;99.90
24836;DHT22;12915;57.650;12.044;2023-06-22T07:17:30;22.60;99.90
24836;DHT22;12915;57.650;12.044;2023-06-22T07:19:56;22.70;99.90
24836;DHT22;12915;57.650;12.044;2023-06-22T07:22:22;22.70;99.90
24836;DHT22;12915;57.650;12.044;2023-06-22T07:24:48;22.50;99.90
24836;DHT22;12915;57.650;12.044;2023-06-22T07:27:14;22.60;99.90
24836;DHT22;12915;57.650;12.044;2023-06-22T07:29:43;22.40;99.90
24836;DHT22;12915;57.650;12.044;2023-06-22T07:32:09;22.40;99.90
24836;DHT22;12915;57.650;12.044;2023-06-22T07:34:35;22.60;99.90
24836;DHT22;12915;57.650;12.044;2023-06-22T07:37:01;22.70;99.90
24836;DHT22;12915;57.650;12.044;2023-06-22T07:39:26;22.80;99.90
24836;DHT22;12915;57.650;12.044;2023-06-22T07:41:53;22.90;99.90
24836;DHT22;12915;57.650;12.044;2023-06-22T07:44:19;22.50;99.90
24836;DHT22;12915;57.650;12.044;2023-06-22T07:46:45;22.50;99.90
24836;DHT22;12915;57.650;12.044;2023-06-22T07:49:11;22.50;99.90
24836;DHT22;12915;57.650;12.044;2023-06-22T07:51:37;22.20;99.90
24836;DHT22;12915;57.650;12.044;2023-06-22T07:54:03;22.20;99.90
24836;DHT22;12915;57.650;12.044;2023-06-22T07:56:28;22.50;99.90
24836;DHT22;12915;57.650;12.044;2023-06-22T07:58:54;22.50;99.90
24836;DHT22;12915;57.650;12.044;2023-06-22T08:01:20;22.50;99.90
24836;DHT22;12915;57.650;12.044;2023-06-22T08:03:48;22.40;99.90
24836;DHT22;12915;57.650;12.044;2023-06-22T08:06:14;22.30;99.90
24836;DHT22;12915;57.650;12.044;2023-06-22T08:08:40;22.50;99.90
24836;DHT22;12915;57.650;12.044;2023-06-22T08:11:08;22.60;99.90
24836;DHT22;12915;57.650;12.044;2023-06-22T08:13:33;22.60;99.90
24836;DHT22;12915;57.650;12.044;2023-06-22T08:15:59;22.60;99.90
24836;DHT22;12915;57.650;12.044;2023-06-22T08:18:25;22.60;99.90
24836;DHT22;12915;57.650;12.044;2023-06-22T08:20:50;22.70;99.90
24836;DHT22;12915;57.650;12.044;2023-06-22T08:23:17;22.60;99.90
24836;DHT22;12915;57.650;12.044;2023-06-22T08:25:42;22.40;99.90
24836;DHT22;12915;57.650;12.044;2023-06-22T08:28:08;22.10;99.90
24836;DHT22;12915;57.650;12.044;2023-06-22T08:30:34;22.20;99.90
24836;DHT22;12915;57.650;12.044;2023-06-22T08:33:00;22.20;99.90
24836;DHT22;12915;57.650;12.044;2023-06-22T08:35:26;22.10;99.90
24836;DHT22;12915;57.650;12.044;2023-06-22T08:37:51;22.30;99.90
24836;DHT22;12915;57.650;12.044;2023-06-22T08:40:22;22.40;99.90
24836;DHT22;12915;57.650;12.044;2023-06-22T08:42:48;22.50;99.90
24836;DHT22;12915;57.650;12.044;2023-06-22T08:45:14;22.30;99.90
24836;DHT22;12915;57.650;12.044;2023-06-22T08:47:41;22.50;99.90
24836;DHT22;12915;57.650;12.044;2023-06-22T08:50:08;22.40;99.90
24836;DHT22;12915;57.650;12.044;2023-06-22T08:52:34;22.30;99.90
24836;DHT22;12915;57.650;12.044;2023-06-22T08:55:00;22.30;99.90
24836;DHT22;12915;57.650;12.044;2023-06-22T08:57:27;22.40;99.90
24836;DHT22;12915;57.650;12.044;2023-06-22T08:59:53;22.60;99.90
24836;DHT22;12915;57.650;12.044;2023-06-22T09:02:19;22.90;99.90
24836;DHT22;12915;57.650;12.044;2023-06-22T09:04:48;23.30;99.90
24836;DHT22;12915;57.650;12.044;2023-06-22T09:07:15;23.40;99.90
24836;DHT22;12915;57.650;12.044;2023-06-22T09:09:47;23.40;99.90
24836;DHT22;12915;57.650;12.044;2023-06-22T09:12:14;23.30;99.90
24836;DHT22;12915;57.650;12.044;2023-06-22T09:14:40;23.20;99.90
24836;DHT22;12915;57.650;12.044;2023-06-22T09:17:06;23.00;99.90
24836;DHT22;12915;57.650;12.044;2023-06-22T09:19:31;23.00;99.90
24836;DHT22;12915;57.650;12.044;2023-06-22T09:21:57;23.00;99.90
24836;DHT22;12915;57.650;12.044;2023-06-22T09:24:24;23.10;99.90
24836;DHT22;12915;57.650;12.044;2023-06-22T09:26:50;23.30;99.90
24836;DHT22;12915;57.650;12.044;2023-06-22T09:29:16;23.30;99.90
24836;DHT22;12915;57.650;12.044;2023-06-22T09:31:42;23.30;99.90
24836;DHT22;12915;57.650;12.044;2023-06-22T09:34:08;23.30;99.90
24836;DHT22;12915;57.650;12.044;2023-06-22T09:36:33;23.30;99.90
24836;DHT22;12915;57.650;12.044;2023-06-22T09:39:00;23.30;99.90
24836;DHT22;12915;57.650;12.044;2023-06-22T09:41:31;23.60;99.90
24836;DHT22;12915;57.650;12.044;2023-06-22T09:43:57;23.60;99.90
24836;DHT22;12915;57.650;12.044;2023-06-22T09:46:23;23.60;99.90
24836;DHT22;12915;57.650;12.044;2023-06-22T09:48:51;23.70;99.90
24836;DHT22;12915;57.650;12.044;2023-06-22T09:51:16;23.80;99.90
24836;DHT22;12915;57.650;12.044;2023-06-22T09:53:44;23.90;99.90
24836;DHT22;12915;57.650;12.044;2023-06-22T09:56:10;23.90;99.90
24836;DHT22;12915;57.650;12.044;2023-06-22T09:58:42;23.90;99.90
24836;DHT22;12915;57.650;12.044;2023-06-22T10:01:08;24.10;99.90
24836;DHT22;12915;57.650;12.044;2023-06-22T10:03:35;24.10;99.90
24836;DHT22;12915;57.650;12.044;2023-06-22T10:06:01;24.00;99.90
24836;DHT22;12915;57.650;12.044;2023-06-22T10:08:27;24.10;99.90
24836;DHT22;12915;57.650;12.044;2023-06-22T10:10:53;24.10;99.90
24836;DHT22;12915;57.650;12.044;2023-06-22T10:13:19;24.10;99.90
24836;DHT22;12915;57.650;12.044;2023-06-22T10:15:45;24.20;99.90
24836;DHT22;12915;57.650;12.044;2023-06-22T10:18:17;24.30;99.90
24836;DHT22;12915;57.650;12.044;2023-06-22T10:20:46;24.30;99.90
24836;DHT22;12915;57.650;12.044;2023-06-22T10:23:12;24.20;99.90
24836;DHT22;12915;57.650;12.044;2023-06-22T10:25:38;24.40;99.90
24836;DHT22;12915;57.650;12.044;2023-06-22T10:28:04;24.40;99.90
24836;DHT22;12915;57.650;12.044;2023-06-22T10:30:29;24.60;99.90
24836;DHT22;12915;57.650;12.044;2023-06-22T10:32:55;24.80;99.90
24836;DHT22;12915;57.650;12.044;2023-06-22T10:35:21;24.60;99.90
24836;DHT22;12915;57.650;12.044;2023-06-22T10:37:47;24.60;99.90
24836;DHT22;12915;57.650;12.044;2023-06-22T10:40:13;24.90;99.90
24836;DHT22;12915;57.650;12.044;2023-06-22T10:42:40;24.70;99.90
24836;DHT22;12915;57.650;12.044;2023-06-22T10:45:06;24.60;99.90
24836;DHT22;12915;57.650;12.044;2023-06-22T10:47:33;24.70;99.90
24836;DHT22;12915;57.650;12.044;2023-06-22T10:49:59;24.70;99.90
24836;DHT22;12915;57.650;12.044;2023-06-22T10:52:25;24.80;99.90
24836;DHT22;12915;57.650;12.044;2023-06-22T10:54:51;24.90;99.90
24836;DHT22;12915;57.650;12.044;2023-06-22T10:57:17;25.00;99.90
24836;DHT22;12915;57.650;12.044;2023-06-22T10:59:43;25.10;99.90
24836;DHT22;12915;57.650;12.044;2023-06-22T11:02:09;25.10;99.90
24836;DHT22;12915;57.650;12.044;2023-06-22T11:04:35;25.30;99.90
24836;DHT22;12915;57.650;12.044;2023-06-22T11:07:00;25.20;99.90
24836;DHT22;12915;57.650;12.044;2023-06-22T11:09:26;25.00;99.90
24836;DHT22;12915;57.650;12.044;2023-06-22T11:11:52;25.00;99.90
24836;DHT22;12915;57.650;12.044;2023-06-22T11:14:21;25.00;99.90
24836;DHT22;12915;57.650;12.044;2023-06-22T11:16:47;25.30;99.90
24836;DHT22;12915;57.650;12.044;2023-06-22T11:19:13;25.10;99.90
24836;DHT22;12915;57.650;12.044;2023-06-22T11:21:39;25.00;99.90
24836;DHT22;12915;57.650;12.044;2023-06-22T11:24:05;25.20;99.90
24836;DHT22;12915;57.650;12.044;2023-06-22T11:26:31;25.30;99.90
24836;DHT22;12915;57.650;12.044;2023-06-22T11:29:00;25.50;99.90
24836;DHT22;12915;57.650;12.044;2023-06-22T11:31:25;25.50;99.90
24836;DHT22;12915;57.650;12.044;2023-06-22T11:33:51;25.50;99.90
24836;DHT22;12915;57.650;12.044;2023-06-22T11:36:17;25.70;99.90
24836;DHT22;12915;57.650;12.044;2023-06-22T11:38:44;25.80;99.90
24836;DHT22;12915;57.650;12.044;2023-06-22T11:41:10;25.50;99.90
24836;DHT22;12915;57.650;12.044;2023-06-22T11:43:36;25.20;99.90
24836;DHT22;12915;57.650;12.044;2023-06-22T11:46:05;25.10;99.90
24836;DHT22;12915;57.650;12.044;2023-06-22T11:48:31;25.10;99.90
24836;DHT22;12915;57.650;12.044;2023-06-22T11:50:57;25.10;99.90
24836;DHT22;12915;57.650;12.044;2023-06-22T11:53:25;25.60;99.90
24836;DHT22;12915;57.650;12.044;2023-06-22T11:55:51;25.90;99.90
24836;DHT22;12915;57.650;12.044;2023-06-22T11:58:19;25.80;99.90
24836;DHT22;12915;57.650;12.044;2023-06-22T12:00:46;25.80;99.90
24836;DHT22;12915;57.650;12.044;2023-06-22T12:03:11;25.80;99.90
24836;DHT22;12915;57.650;12.044;2023-06-22T12:05:38;25.50;99.90
24836;DHT22;12915;57.650;12.044;2023-06-22T12:08:04;25.50;99.90
24836;DHT22;12915;57.650;12.044;2023-06-22T12:10:30;25.40;99.90
24836;DHT22;12915;57.650;12.044;2023-06-22T12:12:56;24.70;99.90
24836;DHT22;12915;57.650;12.044;2023-06-22T12:15:25;24.70;99.90
24836;DHT22;12915;57.650;12.044;2023-06-22T12:17:51;24.50;99.90
24836;DHT22;12915;57.650;12.044;2023-06-22T12:20:17;24.40;99.90
24836;DHT22;12915;57.650;12.044;2023-06-22T12:22:43;24.40;99.90
24836;DHT22;12915;57.650;12.044;2023-06-22T12:25:09;24.20;99.90
24836;DHT22;12915;57.650;12.044;2023-06-22T12:27:36;24.30;99.90
24836;DHT22;12915;57.650;12.044;2023-06-22T12:30:02;24.50;99.90
24836;DHT22;12915;57.650;12.044;2023-06-22T12:32:28;24.60;99.90
24836;DHT22;12915;57.650;12.044;2023-06-22T12:34:55;24.90;99.90
24836;DHT22;12915;57.650;12.044;2023-06-22T12:37:21;25.00;99.90
24836;DHT22;12915;57.650;12.044;2023-06-22T12:39:50;25.30;99.90
24836;DHT22;12915;57.650;12.044;2023-06-22T12:42:16;25.40;99.90
24836;DHT22;12915;57.650;12.044;2023-06-22T12:44:42;25.50;99.90
24836;DHT22;12915;57.650;12.044;2023-06-22T12:47:08;25.30;99.90
24836;DHT22;12915;57.650;12.044;2023-06-22T12:49:35;25.30;99.90
24836;DHT22;12915;57.650;12.044;2023-06-22T12:52:01;25.40;99.90
24836;DHT22;12915;57.650;12.044;2023-06-22T12:54:27;25.40;99.90
24836;DHT22;12915;57.650;12.044;2023-06-22T12:56:55;25.20;99.90
24836;DHT22;12915;57.650;12.044;2023-06-22T12:59:21;24.80;99.90
24836;DHT22;12915;57.650;12.044;2023-06-22T13:01:47;25.10;99.90
24836;DHT22;12915;57.650;12.044;2023-06-22T13:04:13;25.50;99.90
24836;DHT22;12915;57.650;12.044;2023-06-22T13:06:43;25.70;99.90
24836;DHT22;12915;57.650;12.044;2023-06-22T13:09:13;26.00;99.90
24836;DHT22;12915;57.650;12.044;2023-06-22T13:11:39;26.30;99.90
24836;DHT22;12915;57.650;12.044;2023-06-22T13:14:05;25.90;99.90
24836;DHT22;12915;57.650;12.044;2023-06-22T13:16:31;26.00;99.90
24836;DHT22;12915;57.650;12.044;2023-06-22T13:18:57;26.10;99.90
24836;DHT22;12915;57.650;12.044;2023-06-22T13:21:22;26.30;99.90
24836;DHT22;12915;57.650;12.044;2023-06-22T13:23:48;26.60;99.90
24836;DHT22;12915;57.650;12.044;2023-06-22T13:26:14;27.00;99.90
24836;DHT22;12915;57.650;12.044;2023-06-22T13:28:39;27.50;99.90
24836;DHT22;12915;57.650;12.044;2023-06-22T13:31:05;27.40;99.90
24836;DHT22;12915;57.650;12.044;2023-06-22T13:33:31;27.50;99.90
24836;DHT22;12915;57.650;12.044;2023-06-22T13:35:57;27.40;99.90
24836;DHT22;12915;57.650;12.044;2023-06-22T13:38:23;27.30;99.90
24836;DHT22;12915;57.650;12.044;2023-06-22T13:40:49;27.20;99.90
24836;DHT22;12915;57.650;12.044;2023-06-22T13:43:15;27.00;99.90
24836;DHT22;12915;57.650;12.044;2023-06-22T13:45:41;27.20;99.90
24836;DHT22;12915;57.650;12.044;2023-06-22T13:48:07;26.70;99.90
24836;DHT22;12915;57.650;12.044;2023-06-22T13:50:33;26.50;99.90
24836;DHT22;12915;57.650;12.044;2023-06-22T13:52:59;26.70;99.90
24836;DHT22;12915;57.650;12.044;2023-06-22T13:55:25;26.40;99.90
24836;DHT22;12915;57.650;12.044;2023-06-22T13:57:52;26.50;99.90
24836;DHT22;12915;57.650;12.044;2023-06-22T14:00:18;26.50;99.90
24836;DHT22;12915;57.650;12.044;2023-06-22T14:02:44;26.40;99.90
24836;DHT22;12915;57.650;12.044;2023-06-22T14:05:09;26.70;99.90
24836;DHT22;12915;57.650;12.044;2023-06-22T14:07:36;26.60;99.90
24836;DHT22;12915;57.650;12.044;2023-06-22T14:10:03;26.50;99.90
24836;DHT22;12915;57.650;12.044;2023-06-22T14:12:29;26.60;99.90
24836;DHT22;12915;57.650;12.044;2023-06-22T14:14:55;27.40;99.90
24836;DHT22;12915;57.650;12.044;2023-06-22T14:17:20;27.70;99.90
24836;DHT22;12915;57.650;12.044;2023-06-22T14:23:13;27.40;99.90
24836;DHT22;12915;57.650;12.044;2023-06-22T14:25:39;26.60;99.90
24836;DHT22;12915;57.650;12.044;2023-06-22T14:28:05;25.90;99.90
24836;DHT22;12915;57.650;12.044;2023-06-22T14:30:31;25.30;99.90
24836;DHT22;12915;57.650;12.044;2023-06-22T14:32:56;25.30;99.90
24836;DHT22;12915;57.650;12.044;2023-06-22T14:35:22;25.90;99.90
24836;DHT22;12915;57.650;12.044;2023-06-22T14:37:49;26.50;99.90
24836;DHT22;12915;57.650;12.044;2023-06-22T14:40:15;27.30;99.90
24836;DHT22;12915;57.650;12.044;2023-06-22T14:42:42;27.90;99.90
24836;DHT22;12915;57.650;12.044;2023-06-22T14:45:08;28.70;99.90
24836;DHT22;12915;57.650;12.044;2023-06-22T14:47:34;28.70;99.90
24836;DHT22;12915;57.650;12.044;2023-06-22T14:49:59;29.30;99.90
24836;DHT22;12915;57.650;12.044;2023-06-22T14:52:29;29.80;99.90
24836;DHT22;12915;57.650;12.044;2023-06-22T14:54:55;29.70;99.90
24836;DHT22;12915;57.650;12.044;2023-06-22T14:57:21;30.10;99.90
24836;DHT22;12915;57.650;12.044;2023-06-22T14:59:51;30.20;99.90
24836;DHT22;12915;57.650;12.044;2023-06-22T15:02:17;30.60;99.90
24836;DHT22;12915;57.650;12.044;2023-06-22T15:04:43;30.90;99.90
24836;DHT22;12915;57.650;12.044;2023-06-22T15:07:08;30.70;99.90
24836;DHT22;12915;57.650;12.044;2023-06-22T15:09:34;30.80;99.90
24836;DHT22;12915;57.650;12.044;2023-06-22T15:12:00;30.80;99.90
24836;DHT22;12915;57.650;12.044;2023-06-22T15:14:28;31.00;99.90
24836;DHT22;12915;57.650;12.044;2023-06-22T15:16:55;30.40;99.90
24836;DHT22;12915;57.650;12.044;2023-06-22T15:19:20;29.50;99.90